Pembroke, United Kingdom
Current Conditions -  °F | °C
As of 10:50 PM on Wednesday 22 Oct 2014 (Local Time) from EGOP Reporting Station
Overcast Overcast  
Wind Chill: 14°   Ceiling: 2800
Heat Index: 14°   Visibility: 6mi
Dew Point:   Wind: 23mph
Humidity: 72%   Direction: 250°WSW
Pressure: 30.18"   Gusts: NA
Location:  51.67°N, 4.91°W
Report Text: EGOP 222150Z AUTO 25020KT 9999 // FEW023/// OVC028/// 14/09 Q1022
Loading
Personal Weather Stations






























Interactive Weather Map
Tropical Storm Tracking
New forecast layout! Learn more

10-Day Weather Forecast

Advertisements
Track Severe Weather on mobile